sensor_id;sensor_type;location;lat;lon;timestamp;temperature;humidity
22526;DHT22;11429;50.842;4.386;2024-02-14T00:01:04;9.40;99.90
22526;DHT22;11429;50.842;4.386;2024-02-14T00:03:33;9.40;99.90
22526;DHT22;11429;50.842;4.386;2024-02-14T00:05:58;9.50;99.90
22526;DHT22;11429;50.842;4.386;2024-02-14T00:08:24;9.40;99.90
22526;DHT22;11429;50.842;4.386;2024-02-14T00:10:50;9.40;99.90
22526;DHT22;11429;50.842;4.386;2024-02-14T00:13:15;9.40;99.90
22526;DHT22;11429;50.842;4.386;2024-02-14T00:15:43;9.50;99.90
22526;DHT22;11429;50.842;4.386;2024-02-14T00:18:11;9.40;99.90
22526;DHT22;11429;50.842;4.386;2024-02-14T00:20:37;9.40;99.90
22526;DHT22;11429;50.842;4.386;2024-02-14T00:23:04;9.40;99.90
22526;DHT22;11429;50.842;4.386;2024-02-14T00:25:30;9.40;99.90
22526;DHT22;11429;50.842;4.386;2024-02-14T00:27:56;9.40;99.90
22526;DHT22;11429;50.842;4.386;2024-02-14T00:30:22;9.40;99.90
22526;DHT22;11429;50.842;4.386;2024-02-14T00:32:48;9.40;99.90
22526;DHT22;11429;50.842;4.386;2024-02-14T00:35:14;9.40;99.90
22526;DHT22;11429;50.842;4.386;2024-02-14T00:37:40;9.50;99.90
22526;DHT22;11429;50.842;4.386;2024-02-14T00:40:06;9.50;99.90
22526;DHT22;11429;50.842;4.386;2024-02-14T00:42:32;9.50;99.90
22526;DHT22;11429;50.842;4.386;2024-02-14T00:44:59;9.40;99.90
22526;DHT22;11429;50.842;4.386;2024-02-14T00:47:24;9.50;99.90
22526;DHT22;11429;50.842;4.386;2024-02-14T00:49:51;9.50;99.90
22526;DHT22;11429;50.842;4.386;2024-02-14T00:52:17;9.50;99.90
22526;DHT22;11429;50.842;4.386;2024-02-14T00:54:43;9.50;99.90
22526;DHT22;11429;50.842;4.386;2024-02-14T00:57:09;9.60;99.90
22526;DHT22;11429;50.842;4.386;2024-02-14T00:59:35;9.60;99.90
22526;DHT22;11429;50.842;4.386;2024-02-14T01:02:00;9.70;99.90
22526;DHT22;11429;50.842;4.386;2024-02-14T01:04:26;9.60;99.90
22526;DHT22;11429;50.842;4.386;2024-02-14T01:06:52;9.70;99.90
22526;DHT22;11429;50.842;4.386;2024-02-14T01:09:18;9.80;99.90
22526;DHT22;11429;50.842;4.386;2024-02-14T01:11:44;9.80;99.90
22526;DHT22;11429;50.842;4.386;2024-02-14T01:14:10;9.80;99.90
22526;DHT22;11429;50.842;4.386;2024-02-14T01:16:44;9.80;99.90
22526;DHT22;11429;50.842;4.386;2024-02-14T01:19:11;9.80;99.90
22526;DHT22;11429;50.842;4.386;2024-02-14T01:21:37;9.80;99.90
22526;DHT22;11429;50.842;4.386;2024-02-14T01:24:03;9.80;99.90
22526;DHT22;11429;50.842;4.386;2024-02-14T01:26:31;9.80;99.90
22526;DHT22;11429;50.842;4.386;2024-02-14T01:28:57;9.80;99.90
22526;DHT22;11429;50.842;4.386;2024-02-14T01:31:26;9.70;99.90
22526;DHT22;11429;50.842;4.386;2024-02-14T01:33:53;9.70;99.90
22526;DHT22;11429;50.842;4.386;2024-02-14T01:36:18;9.60;99.90
22526;DHT22;11429;50.842;4.386;2024-02-14T01:38:44;9.60;99.90
22526;DHT22;11429;50.842;4.386;2024-02-14T01:41:10;9.60;99.90
22526;DHT22;11429;50.842;4.386;2024-02-14T01:43:36;9.70;99.90
22526;DHT22;11429;50.842;4.386;2024-02-14T01:46:06;9.70;99.90
22526;DHT22;11429;50.842;4.386;2024-02-14T01:48:34;9.70;99.90
22526;DHT22;11429;50.842;4.386;2024-02-14T01:51:01;9.80;99.90
22526;DHT22;11429;50.842;4.386;2024-02-14T01:53:28;9.80;99.90
22526;DHT22;11429;50.842;4.386;2024-02-14T01:55:57;9.80;99.90
22526;DHT22;11429;50.842;4.386;2024-02-14T01:58:23;9.80;99.90
22526;DHT22;11429;50.842;4.386;2024-02-14T02:00:49;9.80;99.90
22526;DHT22;11429;50.842;4.386;2024-02-14T02:03:15;9.90;99.90
22526;DHT22;11429;50.842;4.386;2024-02-14T02:05:42;9.90;99.90
22526;DHT22;11429;50.842;4.386;2024-02-14T02:08:08;10.00;99.90
22526;DHT22;11429;50.842;4.386;2024-02-14T02:10:35;9.90;99.90
22526;DHT22;11429;50.842;4.386;2024-02-14T02:13:01;9.90;99.90
22526;DHT22;11429;50.842;4.386;2024-02-14T02:15:27;9.90;99.90
22526;DHT22;11429;50.842;4.386;2024-02-14T02:17:54;9.80;99.90
22526;DHT22;11429;50.842;4.386;2024-02-14T02:20:20;9.80;99.90
22526;DHT22;11429;50.842;4.386;2024-02-14T02:22:49;9.80;99.90
22526;DHT22;11429;50.842;4.386;2024-02-14T02:25:15;9.80;99.90
22526;DHT22;11429;50.842;4.386;2024-02-14T02:27:41;9.80;99.90
22526;DHT22;11429;50.842;4.386;2024-02-14T02:30:07;9.80;99.90
22526;DHT22;11429;50.842;4.386;2024-02-14T02:32:34;9.80;99.90
22526;DHT22;11429;50.842;4.386;2024-02-14T02:34:59;9.80;99.90
22526;DHT22;11429;50.842;4.386;2024-02-14T02:37:26;9.90;99.90
22526;DHT22;11429;50.842;4.386;2024-02-14T02:39:58;10.00;99.90
22526;DHT22;11429;50.842;4.386;2024-02-14T02:42:24;10.00;99.90
22526;DHT22;11429;50.842;4.386;2024-02-14T02:44:50;10.00;99.90
22526;DHT22;11429;50.842;4.386;2024-02-14T02:47:16;10.00;99.90
22526;DHT22;11429;50.842;4.386;2024-02-14T02:49:46;10.00;99.90
22526;DHT22;11429;50.842;4.386;2024-02-14T02:52:12;10.10;99.90
22526;DHT22;11429;50.842;4.386;2024-02-14T02:54:38;10.10;99.90
22526;DHT22;11429;50.842;4.386;2024-02-14T02:57:10;10.10;99.90
22526;DHT22;11429;50.842;4.386;2024-02-14T02:59:36;10.00;99.90
22526;DHT22;11429;50.842;4.386;2024-02-14T03:02:02;10.10;99.90
22526;DHT22;11429;50.842;4.386;2024-02-14T03:04:28;10.10;99.90
22526;DHT22;11429;50.842;4.386;2024-02-14T03:06:57;10.20;99.90
22526;DHT22;11429;50.842;4.386;2024-02-14T03:09:23;10.10;99.90
22526;DHT22;11429;50.842;4.386;2024-02-14T03:11:52;10.10;99.90
22526;DHT22;11429;50.842;4.386;2024-02-14T03:14:17;10.10;99.90
22526;DHT22;11429;50.842;4.386;2024-02-14T03:16:43;10.20;99.90
22526;DHT22;11429;50.842;4.386;2024-02-14T03:19:09;10.30;99.90
22526;DHT22;11429;50.842;4.386;2024-02-14T03:21:35;10.20;99.90
22526;DHT22;11429;50.842;4.386;2024-02-14T03:24:04;10.30;99.90
22526;DHT22;11429;50.842;4.386;2024-02-14T03:26:31;10.20;99.90
22526;DHT22;11429;50.842;4.386;2024-02-14T03:29:00;10.20;99.90
22526;DHT22;11429;50.842;4.386;2024-02-14T03:31:26;10.20;99.90
22526;DHT22;11429;50.842;4.386;2024-02-14T03:33:52;10.20;99.90
22526;DHT22;11429;50.842;4.386;2024-02-14T03:36:19;10.20;99.90
22526;DHT22;11429;50.842;4.386;2024-02-14T03:38:44;10.20;99.90
22526;DHT22;11429;50.842;4.386;2024-02-14T03:41:12;10.20;99.90
22526;DHT22;11429;50.842;4.386;2024-02-14T03:43:41;10.10;99.90
22526;DHT22;11429;50.842;4.386;2024-02-14T03:46:07;10.20;99.90
22526;DHT22;11429;50.842;4.386;2024-02-14T03:48:32;10.20;99.90
22526;DHT22;11429;50.842;4.386;2024-02-14T03:50:59;10.20;99.90
22526;DHT22;11429;50.842;4.386;2024-02-14T03:53:25;10.30;99.90
22526;DHT22;11429;50.842;4.386;2024-02-14T03:55:51;10.30;99.90
22526;DHT22;11429;50.842;4.386;2024-02-14T03:58:19;10.20;99.90
22526;DHT22;11429;50.842;4.386;2024-02-14T04:00:51;10.10;99.90
22526;DHT22;11429;50.842;4.386;2024-02-14T04:03:17;10.20;99.90
22526;DHT22;11429;50.842;4.386;2024-02-14T04:05:44;10.20;99.90
22526;DHT22;11429;50.842;4.386;2024-02-14T04:08:13;10.20;99.90
22526;DHT22;11429;50.842;4.386;2024-02-14T04:10:39;10.20;99.90
22526;DHT22;11429;50.842;4.386;2024-02-14T04:13:05;10.30;99.90
22526;DHT22;11429;50.842;4.386;2024-02-14T04:15:32;10.30;99.90
22526;DHT22;11429;50.842;4.386;2024-02-14T04:17:57;10.30;99.90
22526;DHT22;11429;50.842;4.386;2024-02-14T04:20:27;10.30;99.90
22526;DHT22;11429;50.842;4.386;2024-02-14T04:22:53;10.30;99.90
22526;DHT22;11429;50.842;4.386;2024-02-14T04:25:19;10.30;99.90
22526;DHT22;11429;50.842;4.386;2024-02-14T04:27:44;10.30;99.90
22526;DHT22;11429;50.842;4.386;2024-02-14T04:30:10;10.30;99.90
22526;DHT22;11429;50.842;4.386;2024-02-14T04:32:36;10.50;99.90
22526;DHT22;11429;50.842;4.386;2024-02-14T04:35:02;10.40;99.90
22526;DHT22;11429;50.842;4.386;2024-02-14T04:37:29;10.40;99.90
22526;DHT22;11429;50.842;4.386;2024-02-14T04:39:55;10.40;99.90
22526;DHT22;11429;50.842;4.386;2024-02-14T04:42:20;10.40;99.90
22526;DHT22;11429;50.842;4.386;2024-02-14T04:44:46;10.40;99.90
22526;DHT22;11429;50.842;4.386;2024-02-14T04:47:12;10.40;99.90
22526;DHT22;11429;50.842;4.386;2024-02-14T04:49:37;10.40;99.90
22526;DHT22;11429;50.842;4.386;2024-02-14T04:52:04;10.50;99.90
22526;DHT22;11429;50.842;4.386;2024-02-14T04:54:30;10.60;99.90
22526;DHT22;11429;50.842;4.386;2024-02-14T04:56:55;10.60;99.90
22526;DHT22;11429;50.842;4.386;2024-02-14T04:59:21;10.50;99.90
22526;DHT22;11429;50.842;4.386;2024-02-14T05:01:47;10.60;99.90
22526;DHT22;11429;50.842;4.386;2024-02-14T05:04:13;10.70;99.90
22526;DHT22;11429;50.842;4.386;2024-02-14T05:06:39;10.70;99.90
22526;DHT22;11429;50.842;4.386;2024-02-14T05:09:05;10.80;99.90
22526;DHT22;11429;50.842;4.386;2024-02-14T05:11:31;10.70;99.90
22526;DHT22;11429;50.842;4.386;2024-02-14T05:13:57;10.60;99.90
22526;DHT22;11429;50.842;4.386;2024-02-14T05:16:23;10.50;99.90
22526;DHT22;11429;50.842;4.386;2024-02-14T05:18:49;10.40;99.90
22526;DHT22;11429;50.842;4.386;2024-02-14T05:21:15;10.40;99.90
22526;DHT22;11429;50.842;4.386;2024-02-14T05:23:42;10.40;99.90
22526;DHT22;11429;50.842;4.386;2024-02-14T05:26:08;10.50;99.90
22526;DHT22;11429;50.842;4.386;2024-02-14T05:28:33;10.50;99.90
22526;DHT22;11429;50.842;4.386;2024-02-14T05:31:00;10.50;99.90
22526;DHT22;11429;50.842;4.386;2024-02-14T05:33:26;10.50;99.90
22526;DHT22;11429;50.842;4.386;2024-02-14T05:35:52;10.50;99.90
22526;DHT22;11429;50.842;4.386;2024-02-14T05:38:18;10.50;99.90
22526;DHT22;11429;50.842;4.386;2024-02-14T05:40:50;10.50;99.90
22526;DHT22;11429;50.842;4.386;2024-02-14T05:43:16;10.50;99.90
22526;DHT22;11429;50.842;4.386;2024-02-14T05:45:43;10.60;99.90
22526;DHT22;11429;50.842;4.386;2024-02-14T05:48:09;10.60;99.90
22526;DHT22;11429;50.842;4.386;2024-02-14T05:50:35;10.60;99.90
22526;DHT22;11429;50.842;4.386;2024-02-14T05:53:03;10.60;99.90
22526;DHT22;11429;50.842;4.386;2024-02-14T05:55:29;10.50;99.90
22526;DHT22;11429;50.842;4.386;2024-02-14T05:57:55;10.60;99.90
22526;DHT22;11429;50.842;4.386;2024-02-14T06:00:23;10.60;99.90
22526;DHT22;11429;50.842;4.386;2024-02-14T06:02:48;10.60;99.90
22526;DHT22;11429;50.842;4.386;2024-02-14T06:05:15;10.70;99.90
22526;DHT22;11429;50.842;4.386;2024-02-14T06:07:41;10.70;99.90
22526;DHT22;11429;50.842;4.386;2024-02-14T06:10:08;10.70;99.90
22526;DHT22;11429;50.842;4.386;2024-02-14T06:12:34;10.70;99.90
22526;DHT22;11429;50.842;4.386;2024-02-14T06:15:01;10.70;99.90
22526;DHT22;11429;50.842;4.386;2024-02-14T06:17:27;10.60;99.90
22526;DHT22;11429;50.842;4.386;2024-02-14T06:19:53;10.60;99.90
22526;DHT22;11429;50.842;4.386;2024-02-14T06:22:19;10.60;99.90
22526;DHT22;11429;50.842;4.386;2024-02-14T06:24:46;10.60;99.90
22526;DHT22;11429;50.842;4.386;2024-02-14T06:27:14;10.60;99.90
22526;DHT22;11429;50.842;4.386;2024-02-14T06:29:46;10.60;99.90
22526;DHT22;11429;50.842;4.386;2024-02-14T06:32:13;10.60;99.90
22526;DHT22;11429;50.842;4.386;2024-02-14T06:34:39;10.50;99.90
22526;DHT22;11429;50.842;4.386;2024-02-14T06:37:04;10.60;99.90
22526;DHT22;11429;50.842;4.386;2024-02-14T06:39:31;10.60;99.90
22526;DHT22;11429;50.842;4.386;2024-02-14T06:41:57;10.70;99.90
22526;DHT22;11429;50.842;4.386;2024-02-14T06:44:23;10.70;99.90
22526;DHT22;11429;50.842;4.386;2024-02-14T06:46:49;10.70;99.90
22526;DHT22;11429;50.842;4.386;2024-02-14T06:49:18;10.70;99.90
22526;DHT22;11429;50.842;4.386;2024-02-14T06:51:44;10.70;99.90
22526;DHT22;11429;50.842;4.386;2024-02-14T06:54:10;10.70;99.90
22526;DHT22;11429;50.842;4.386;2024-02-14T06:56:38;10.70;99.90
22526;DHT22;11429;50.842;4.386;2024-02-14T06:59:04;10.70;99.90
22526;DHT22;11429;50.842;4.386;2024-02-14T07:01:30;10.80;99.90
22526;DHT22;11429;50.842;4.386;2024-02-14T07:03:56;10.80;99.90
22526;DHT22;11429;50.842;4.386;2024-02-14T07:06:22;10.80;99.90
22526;DHT22;11429;50.842;4.386;2024-02-14T07:08:48;10.80;99.90
22526;DHT22;11429;50.842;4.386;2024-02-14T07:11:15;10.80;99.90
22526;DHT22;11429;50.842;4.386;2024-02-14T07:13:44;10.70;99.90
22526;DHT22;11429;50.842;4.386;2024-02-14T07:16:09;10.70;99.90
22526;DHT22;11429;50.842;4.386;2024-02-14T07:18:35;10.70;99.90
22526;DHT22;11429;50.842;4.386;2024-02-14T07:21:01;10.80;99.90
22526;DHT22;11429;50.842;4.386;2024-02-14T07:23:27;10.80;99.90
22526;DHT22;11429;50.842;4.386;2024-02-14T07:25:53;10.80;99.90
22526;DHT22;11429;50.842;4.386;2024-02-14T07:28:19;10.80;99.90
22526;DHT22;11429;50.842;4.386;2024-02-14T07:30:44;10.80;99.90
22526;DHT22;11429;50.842;4.386;2024-02-14T07:33:10;10.80;99.90
22526;DHT22;11429;50.842;4.386;2024-02-14T07:35:39;10.80;99.90
22526;DHT22;11429;50.842;4.386;2024-02-14T07:38:05;10.80;99.90
22526;DHT22;11429;50.842;4.386;2024-02-14T07:40:31;10.80;99.90
22526;DHT22;11429;50.842;4.386;2024-02-14T07:42:57;10.90;99.90
22526;DHT22;11429;50.842;4.386;2024-02-14T07:45:23;10.80;99.90
22526;DHT22;11429;50.842;4.386;2024-02-14T07:47:52;10.80;99.90
22526;DHT22;11429;50.842;4.386;2024-02-14T07:50:18;10.90;99.90
22526;DHT22;11429;50.842;4.386;2024-02-14T07:52:44;10.90;99.90
22526;DHT22;11429;50.842;4.386;2024-02-14T07:55:11;10.90;99.90
22526;DHT22;11429;50.842;4.386;2024-02-14T07:57:38;10.90;99.90
22526;DHT22;11429;50.842;4.386;2024-02-14T08:00:08;11.00;99.90
22526;DHT22;11429;50.842;4.386;2024-02-14T08:02:34;11.00;99.90
22526;DHT22;11429;50.842;4.386;2024-02-14T08:05:01;11.00;99.90
22526;DHT22;11429;50.842;4.386;2024-02-14T08:07:26;11.00;99.90
22526;DHT22;11429;50.842;4.386;2024-02-14T08:09:52;11.00;99.90
22526;DHT22;11429;50.842;4.386;2024-02-14T08:12:19;11.10;99.90
22526;DHT22;11429;50.842;4.386;2024-02-14T08:14:45;11.10;99.90
22526;DHT22;11429;50.842;4.386;2024-02-14T08:17:13;11.10;99.90
22526;DHT22;11429;50.842;4.386;2024-02-14T08:19:38;11.00;99.90
22526;DHT22;11429;50.842;4.386;2024-02-14T08:22:05;11.00;99.90
22526;DHT22;11429;50.842;4.386;2024-02-14T08:24:31;11.00;99.90
22526;DHT22;11429;50.842;4.386;2024-02-14T08:26:57;11.00;99.90
22526;DHT22;11429;50.842;4.386;2024-02-14T08:29:23;11.00;99.90
22526;DHT22;11429;50.842;4.386;2024-02-14T08:31:49;11.10;99.90
22526;DHT22;11429;50.842;4.386;2024-02-14T08:34:15;11.10;99.90
22526;DHT22;11429;50.842;4.386;2024-02-14T08:36:43;11.10;99.90
22526;DHT22;11429;50.842;4.386;2024-02-14T08:39:09;11.00;99.90
22526;DHT22;11429;50.842;4.386;2024-02-14T08:41:39;11.10;99.90
22526;DHT22;11429;50.842;4.386;2024-02-14T08:44:07;11.20;99.90
22526;DHT22;11429;50.842;4.386;2024-02-14T08:46:33;11.30;99.90
22526;DHT22;11429;50.842;4.386;2024-02-14T08:49:01;11.20;99.90
22526;DHT22;11429;50.842;4.386;2024-02-14T08:51:37;11.20;99.90
22526;DHT22;11429;50.842;4.386;2024-02-14T08:54:06;11.30;99.90
22526;DHT22;11429;50.842;4.386;2024-02-14T08:56:33;11.30;99.90
22526;DHT22;11429;50.842;4.386;2024-02-14T08:59:02;11.30;99.90
22526;DHT22;11429;50.842;4.386;2024-02-14T09:01:31;11.30;99.90
22526;DHT22;11429;50.842;4.386;2024-02-14T09:03:57;11.30;99.90
22526;DHT22;11429;50.842;4.386;2024-02-14T09:06:24;11.40;99.90
22526;DHT22;11429;50.842;4.386;2024-02-14T09:08:52;11.40;99.90
22526;DHT22;11429;50.842;4.386;2024-02-14T09:11:20;11.30;99.90
22526;DHT22;11429;50.842;4.386;2024-02-14T09:13:46;11.20;99.90
22526;DHT22;11429;50.842;4.386;2024-02-14T09:16:14;11.30;99.90
22526;DHT22;11429;50.842;4.386;2024-02-14T09:18:45;11.40;99.90
22526;DHT22;11429;50.842;4.386;2024-02-14T09:21:12;11.40;99.90
22526;DHT22;11429;50.842;4.386;2024-02-14T09:23:38;11.40;99.90
22526;DHT22;11429;50.842;4.386;2024-02-14T09:26:07;11.40;99.90
22526;DHT22;11429;50.842;4.386;2024-02-14T09:28:33;11.40;99.90
22526;DHT22;11429;50.842;4.386;2024-02-14T09:31:01;11.40;99.90
22526;DHT22;11429;50.842;4.386;2024-02-14T09:33:29;11.40;99.90
22526;DHT22;11429;50.842;4.386;2024-02-14T09:35:55;11.40;99.90
22526;DHT22;11429;50.842;4.386;2024-02-14T09:38:21;11.40;99.90
22526;DHT22;11429;50.842;4.386;2024-02-14T09:40:50;11.50;99.90
22526;DHT22;11429;50.842;4.386;2024-02-14T09:43:34;11.50;99.90
22526;DHT22;11429;50.842;4.386;2024-02-14T09:46:01;11.50;99.90
22526;DHT22;11429;50.842;4.386;2024-02-14T09:48:30;11.60;99.90
22526;DHT22;11429;50.842;4.386;2024-02-14T09:50:57;11.60;99.90
22526;DHT22;11429;50.842;4.386;2024-02-14T09:53:23;11.60;99.90
22526;DHT22;11429;50.842;4.386;2024-02-14T09:55:50;11.70;99.90
22526;DHT22;11429;50.842;4.386;2024-02-14T09:58:17;11.70;99.90
22526;DHT22;11429;50.842;4.386;2024-02-14T10:00:43;11.80;99.90
22526;DHT22;11429;50.842;4.386;2024-02-14T10:03:09;11.80;99.90
22526;DHT22;11429;50.842;4.386;2024-02-14T10:05:35;11.80;99.90
22526;DHT22;11429;50.842;4.386;2024-02-14T10:08:01;11.90;99.90
22526;DHT22;11429;50.842;4.386;2024-02-14T10:10:27;11.80;99.90
22526;DHT22;11429;50.842;4.386;2024-02-14T10:12:56;11.90;99.90
22526;DHT22;11429;50.842;4.386;2024-02-14T10:15:22;11.90;99.90
22526;DHT22;11429;50.842;4.386;2024-02-14T10:17:48;11.80;99.90
22526;DHT22;11429;50.842;4.386;2024-02-14T10:20:17;11.90;99.90
22526;DHT22;11429;50.842;4.386;2024-02-14T10:22:43;12.00;99.90
22526;DHT22;11429;50.842;4.386;2024-02-14T10:25:10;11.90;99.90
22526;DHT22;11429;50.842;4.386;2024-02-14T10:27:39;11.90;99.90
22526;DHT22;11429;50.842;4.386;2024-02-14T10:30:07;12.00;99.90
22526;DHT22;11429;50.842;4.386;2024-02-14T10:32:41;12.00;99.90
22526;DHT22;11429;50.842;4.386;2024-02-14T10:35:13;11.90;99.90
22526;DHT22;11429;50.842;4.386;2024-02-14T10:37:39;12.00;99.90
22526;DHT22;11429;50.842;4.386;2024-02-14T10:40:06;11.90;99.90
22526;DHT22;11429;50.842;4.386;2024-02-14T10:42:32;11.80;99.90
22526;DHT22;11429;50.842;4.386;2024-02-14T10:44:59;11.80;99.90
22526;DHT22;11429;50.842;4.386;2024-02-14T10:47:30;11.70;99.90
22526;DHT22;11429;50.842;4.386;2024-02-14T10:50:05;11.70;99.90
22526;DHT22;11429;50.842;4.386;2024-02-14T10:52:34;11.70;99.90
22526;DHT22;11429;50.842;4.386;2024-02-14T10:55:02;11.80;99.90
22526;DHT22;11429;50.842;4.386;2024-02-14T10:57:29;11.80;99.90
22526;DHT22;11429;50.842;4.386;2024-02-14T10:59:57;11.80;99.90
22526;DHT22;11429;50.842;4.386;2024-02-14T11:02:25;11.90;99.90
22526;DHT22;11429;50.842;4.386;2024-02-14T11:04:58;11.90;99.90
22526;DHT22;11429;50.842;4.386;2024-02-14T11:07:27;12.00;99.90
22526;DHT22;11429;50.842;4.386;2024-02-14T11:10:07;11.90;99.90
22526;DHT22;11429;50.842;4.386;2024-02-14T11:12:37;11.90;99.90
22526;DHT22;11429;50.842;4.386;2024-02-14T11:15:24;11.90;99.90
22526;DHT22;11429;50.842;4.386;2024-02-14T11:17:50;12.20;99.90
22526;DHT22;11429;50.842;4.386;2024-02-14T11:20:31;12.20;99.90
22526;DHT22;11429;50.842;4.386;2024-02-14T11:23:04;12.10;99.90
22526;DHT22;11429;50.842;4.386;2024-02-14T11:25:32;12.10;99.90
22526;DHT22;11429;50.842;4.386;2024-02-14T11:28:00;12.10;99.90
22526;DHT22;11429;50.842;4.386;2024-02-14T11:30:33;12.10;99.90
22526;DHT22;11429;50.842;4.386;2024-02-14T11:33:23;12.20;99.90
22526;DHT22;11429;50.842;4.386;2024-02-14T11:35:53;12.20;99.90
22526;DHT22;11429;50.842;4.386;2024-02-14T11:38:23;12.20;99.90
22526;DHT22;11429;50.842;4.386;2024-02-14T11:40:53;12.20;99.90
22526;DHT22;11429;50.842;4.386;2024-02-14T11:43:22;12.20;99.90
22526;DHT22;11429;50.842;4.386;2024-02-14T11:45:48;12.10;99.90
22526;DHT22;11429;50.842;4.386;2024-02-14T11:48:21;12.20;99.90
22526;DHT22;11429;50.842;4.386;2024-02-14T11:50:50;12.20;99.90
22526;DHT22;11429;50.842;4.386;2024-02-14T11:53:17;12.20;99.90
22526;DHT22;11429;50.842;4.386;2024-02-14T11:55:45;12.20;99.90
22526;DHT22;11429;50.842;4.386;2024-02-14T11:58:13;12.20;99.90
22526;DHT22;11429;50.842;4.386;2024-02-14T12:00:40;12.30;99.90
22526;DHT22;11429;50.842;4.386;2024-02-14T12:03:22;12.40;99.90
22526;DHT22;11429;50.842;4.386;2024-02-14T12:05:49;12.50;99.90
22526;DHT22;11429;50.842;4.386;2024-02-14T12:08:16;12.60;99.90
22526;DHT22;11429;50.842;4.386;2024-02-14T12:10:44;12.60;99.90
22526;DHT22;11429;50.842;4.386;2024-02-14T12:13:17;12.60;99.90
22526;DHT22;11429;50.842;4.386;2024-02-14T12:15:47;12.60;99.90
22526;DHT22;11429;50.842;4.386;2024-02-14T12:18:13;12.70;99.90
22526;DHT22;11429;50.842;4.386;2024-02-14T12:20:40;12.60;99.90
22526;DHT22;11429;50.842;4.386;2024-02-14T12:23:06;12.70;99.90
22526;DHT22;11429;50.842;4.386;2024-02-14T12:25:33;12.70;99.90
22526;DHT22;11429;50.842;4.386;2024-02-14T12:27:59;12.70;99.90
22526;DHT22;11429;50.842;4.386;2024-02-14T12:30:47;12.70;99.90
22526;DHT22;11429;50.842;4.386;2024-02-14T12:33:21;12.80;99.90
22526;DHT22;11429;50.842;4.386;2024-02-14T12:35:49;13.00;99.90
22526;DHT22;11429;50.842;4.386;2024-02-14T12:38:16;13.00;99.90
22526;DHT22;11429;50.842;4.386;2024-02-14T12:40:42;12.90;99.90
22526;DHT22;11429;50.842;4.386;2024-02-14T12:43:10;12.90;99.90
22526;DHT22;11429;50.842;4.386;2024-02-14T12:45:40;13.00;99.90
22526;DHT22;11429;50.842;4.386;2024-02-14T12:48:07;13.00;99.90
22526;DHT22;11429;50.842;4.386;2024-02-14T12:50:36;13.10;99.90
22526;DHT22;11429;50.842;4.386;2024-02-14T12:53:06;13.20;99.90
22526;DHT22;11429;50.842;4.386;2024-02-14T12:55:32;13.40;99.90
22526;DHT22;11429;50.842;4.386;2024-02-14T12:57:58;13.40;99.90
22526;DHT22;11429;50.842;4.386;2024-02-14T13:00:24;13.20;99.90
22526;DHT22;11429;50.842;4.386;2024-02-14T13:02:50;13.10;99.90
22526;DHT22;11429;50.842;4.386;2024-02-14T13:05:16;13.10;99.90
22526;DHT22;11429;50.842;4.386;2024-02-14T13:07:43;13.10;99.90
22526;DHT22;11429;50.842;4.386;2024-02-14T13:10:09;13.00;99.90
22526;DHT22;11429;50.842;4.386;2024-02-14T13:12:36;13.10;99.90
22526;DHT22;11429;50.842;4.386;2024-02-14T13:15:03;13.10;99.90
22526;DHT22;11429;50.842;4.386;2024-02-14T13:17:29;13.00;99.90
22526;DHT22;11429;50.842;4.386;2024-02-14T13:19:55;13.00;99.90
22526;DHT22;11429;50.842;4.386;2024-02-14T13:22:21;12.90;99.90
22526;DHT22;11429;50.842;4.386;2024-02-14T13:24:48;13.00;99.90
22526;DHT22;11429;50.842;4.386;2024-02-14T13:27:14;13.00;99.90
22526;DHT22;11429;50.842;4.386;2024-02-14T13:29:40;13.00;99.90
22526;DHT22;11429;50.842;4.386;2024-02-14T13:32:06;13.00;99.90
22526;DHT22;11429;50.842;4.386;2024-02-14T13:34:33;13.10;99.90
22526;DHT22;11429;50.842;4.386;2024-02-14T13:37:00;13.20;99.90
22526;DHT22;11429;50.842;4.386;2024-02-14T13:39:26;13.00;99.90
22526;DHT22;11429;50.842;4.386;2024-02-14T13:41:51;13.10;99.90
22526;DHT22;11429;50.842;4.386;2024-02-14T13:44:18;13.00;99.90
22526;DHT22;11429;50.842;4.386;2024-02-14T13:46:45;12.90;99.90
22526;DHT22;11429;50.842;4.386;2024-02-14T13:49:16;12.90;99.90
22526;DHT22;11429;50.842;4.386;2024-02-14T13:51:50;13.10;99.90
22526;DHT22;11429;50.842;4.386;2024-02-14T13:54:20;13.10;99.90
22526;DHT22;11429;50.842;4.386;2024-02-14T14:01:49;13.40;99.90
22526;DHT22;11429;50.842;4.386;2024-02-14T14:04:15;13.20;99.90
22526;DHT22;11429;50.842;4.386;2024-02-14T14:06:41;13.00;99.90
22526;DHT22;11429;50.842;4.386;2024-02-14T14:09:06;12.90;99.90
22526;DHT22;11429;50.842;4.386;2024-02-14T14:11:36;12.90;99.90
22526;DHT22;11429;50.842;4.386;2024-02-14T14:14:01;13.00;99.90
22526;DHT22;11429;50.842;4.386;2024-02-14T14:16:27;12.90;99.90
22526;DHT22;11429;50.842;4.386;2024-02-14T14:18:53;12.90;99.90
22526;DHT22;11429;50.842;4.386;2024-02-14T14:21:18;13.00;99.90
22526;DHT22;11429;50.842;4.386;2024-02-14T14:23:44;13.10;99.90
22526;DHT22;11429;50.842;4.386;2024-02-14T14:26:10;13.00;99.90
22526;DHT22;11429;50.842;4.386;2024-02-14T14:28:36;13.10;99.90
22526;DHT22;11429;50.842;4.386;2024-02-14T14:31:02;13.10;99.90
22526;DHT22;11429;50.842;4.386;2024-02-14T14:33:28;13.10;99.90
22526;DHT22;11429;50.842;4.386;2024-02-14T14:35:54;13.10;99.90
22526;DHT22;11429;50.842;4.386;2024-02-14T14:38:21;13.00;99.90
22526;DHT22;11429;50.842;4.386;2024-02-14T14:40:47;13.10;99.90
22526;DHT22;11429;50.842;4.386;2024-02-14T14:43:14;13.10;99.90
22526;DHT22;11429;50.842;4.386;2024-02-14T14:45:40;13.10;99.90
22526;DHT22;11429;50.842;4.386;2024-02-14T14:48:07;13.20;99.90
22526;DHT22;11429;50.842;4.386;2024-02-14T14:50:35;13.30;99.90
22526;DHT22;11429;50.842;4.386;2024-02-14T14:53:01;13.20;99.90
22526;DHT22;11429;50.842;4.386;2024-02-14T14:55:50;13.30;99.90
22526;DHT22;11429;50.842;4.386;2024-02-14T14:58:16;13.20;99.90
22526;DHT22;11429;50.842;4.386;2024-02-14T15:00:43;13.20;99.90
22526;DHT22;11429;50.842;4.386;2024-02-14T15:03:09;13.40;99.90
22526;DHT22;11429;50.842;4.386;2024-02-14T15:05:36;13.60;99.90
22526;DHT22;11429;50.842;4.386;2024-02-14T15:08:07;13.60;99.90
22526;DHT22;11429;50.842;4.386;2024-02-14T15:10:33;13.40;99.90
22526;DHT22;11429;50.842;4.386;2024-02-14T15:13:00;13.30;99.90
22526;DHT22;11429;50.842;4.386;2024-02-14T15:15:26;13.20;99.90
22526;DHT22;11429;50.842;4.386;2024-02-14T15:17:51;13.20;99.90
22526;DHT22;11429;50.842;4.386;2024-02-14T15:20:17;13.20;99.90
22526;DHT22;11429;50.842;4.386;2024-02-14T15:22:43;13.20;99.90
22526;DHT22;11429;50.842;4.386;2024-02-14T15:25:09;13.30;99.90
22526;DHT22;11429;50.842;4.386;2024-02-14T15:27:34;13.30;99.90
22526;DHT22;11429;50.842;4.386;2024-02-14T15:30:06;13.30;99.90
22526;DHT22;11429;50.842;4.386;2024-02-14T15:32:51;13.20;99.90
22526;DHT22;11429;50.842;4.386;2024-02-14T15:35:35;13.20;99.90
22526;DHT22;11429;50.842;4.386;2024-02-14T15:38:02;13.10;99.90